Terminal Aerodrome Forecast
Issued by NWS Cleveland, OH

Home | Current Version | Previous Version | Text Only | Print | Product List | Glossary On
Versions: 1 2 3 4 5 6 7 8 9 10 11 12 13 14 15 16 17 18 19 20
000
FTUS41 KCLE 160500
TAFMFD
TAF
KMFD 160520Z 1606/1706 33007KT 6SM -RA BR BKN005 OVC010
      TEMPO 1606/1609 2SM BR SCT005 OVC010
     FM160900 31003KT 2SM BR OVC003
      TEMPO 1609/1613 1/2SM FG
     FM161400 35006KT 4SM BR SCT003 OVC008
     FM161500 35006KT 6SM BR BKN012 OVC035
     FM161600 33006KT P6SM BKN035
     FM161800 33005KT P6SM SCT035
     FM170200 26003KT P6SM SKC=

USA.gov is the U.S. government's official web portal to all federal, state and local government web resources and services.